sensor_id;sensor_type;location;lat;lon;timestamp;temperature;humidity
9544;DHT22;30418;51.45933468;7.33152330;2022-12-07T00:01:06;7.50;75.10
9544;DHT22;30418;51.45933468;7.33152330;2022-12-07T00:03:59;7.50;75.20
9544;DHT22;30418;51.45933468;7.33152330;2022-12-07T00:06:52;7.50;75.20
9544;DHT22;30418;51.45933468;7.33152330;2022-12-07T00:09:41;7.50;75.10
9544;DHT22;30418;51.45933468;7.33152330;2022-12-07T00:12:30;7.50;75.10
9544;DHT22;30418;51.45933468;7.33152330;2022-12-07T00:15:19;7.50;75.20
9544;DHT22;30418;51.45933468;7.33152330;2022-12-07T00:18:07;7.50;75.20
9544;DHT22;30418;51.45933468;7.33152330;2022-12-07T00:21:00;7.50;75.20
9544;DHT22;30418;51.45933468;7.33152330;2022-12-07T00:23:52;7.50;75.20
9544;DHT22;30418;51.45933468;7.33152330;2022-12-07T00:26:42;7.50;75.20
9544;DHT22;30418;51.45933468;7.33152330;2022-12-07T00:29:32;7.50;75.20
9544;DHT22;30418;51.45933468;7.33152330;2022-12-07T00:32:20;7.50;75.20
9544;DHT22;30418;51.45933468;7.33152330;2022-12-07T00:35:09;7.50;75.20
9544;DHT22;30418;51.45933468;7.33152330;2022-12-07T00:37:59;7.50;75.30
9544;DHT22;30418;51.45933468;7.33152330;2022-12-07T00:40:54;7.50;75.20
9544;DHT22;30418;51.45933468;7.33152330;2022-12-07T00:43:47;7.50;75.40
9544;DHT22;30418;51.45933468;7.33152330;2022-12-07T00:46:36;7.50;75.30
9544;DHT22;30418;51.45933468;7.33152330;2022-12-07T00:49:25;7.50;75.30
9544;DHT22;30418;51.45933468;7.33152330;2022-12-07T00:52:14;7.50;75.30
9544;DHT22;30418;51.45933468;7.33152330;2022-12-07T00:55:05;7.50;75.30
9544;DHT22;30418;51.45933468;7.33152330;2022-12-07T00:57:54;7.50;75.30
9544;DHT22;30418;51.45933468;7.33152330;2022-12-07T01:00:43;7.60;75.40
9544;DHT22;30418;51.45933468;7.33152330;2022-12-07T01:03:32;7.60;75.40
9544;DHT22;30418;51.45933468;7.33152330;2022-12-07T01:06:22;7.60;75.40
9544;DHT22;30418;51.45933468;7.33152330;2022-12-07T01:09:12;7.60;75.40
9544;DHT22;30418;51.45933468;7.33152330;2022-12-07T01:12:02;7.50;75.30
9544;DHT22;30418;51.45933468;7.33152330;2022-12-07T01:14:51;7.60;75.50
9544;DHT22;30418;51.45933468;7.33152330;2022-12-07T01:17:47;7.50;75.30
9544;DHT22;30418;51.45933468;7.33152330;2022-12-07T01:20:36;7.60;75.50
9544;DHT22;30418;51.45933468;7.33152330;2022-12-07T01:23:25;7.60;75.50
9544;DHT22;30418;51.45933468;7.33152330;2022-12-07T01:26:17;7.60;75.50
9544;DHT22;30418;51.45933468;7.33152330;2022-12-07T01:29:08;7.60;75.60
9544;DHT22;30418;51.45933468;7.33152330;2022-12-07T01:31:57;7.60;75.50
9544;DHT22;30418;51.45933468;7.33152330;2022-12-07T01:34:47;7.60;75.50
9544;DHT22;30418;51.45933468;7.33152330;2022-12-07T01:37:36;7.60;75.50
9544;DHT22;30418;51.45933468;7.33152330;2022-12-07T01:40:26;7.60;75.50
9544;DHT22;30418;51.45933468;7.33152330;2022-12-07T01:43:17;7.60;75.50
9544;DHT22;30418;51.45933468;7.33152330;2022-12-07T01:46:10;7.60;75.70
9544;DHT22;30418;51.45933468;7.33152330;2022-12-07T01:48:59;7.60;75.60
9544;DHT22;30418;51.45933468;7.33152330;2022-12-07T01:51:52;7.60;75.60
9544;DHT22;30418;51.45933468;7.33152330;2022-12-07T01:54:44;7.60;75.60
9544;DHT22;30418;51.45933468;7.33152330;2022-12-07T01:57:36;7.60;75.60
9544;DHT22;30418;51.45933468;7.33152330;2022-12-07T02:00:28;7.60;76.50
9544;DHT22;30418;51.45933468;7.33152330;2022-12-07T02:03:21;7.60;75.60
9544;DHT22;30418;51.45933468;7.33152330;2022-12-07T02:06:19;7.60;75.70
9544;DHT22;30418;51.45933468;7.33152330;2022-12-07T02:09:12;7.60;75.70
9544;DHT22;30418;51.45933468;7.33152330;2022-12-07T02:12:01;7.60;75.60
9544;DHT22;30418;51.45933468;7.33152330;2022-12-07T02:14:51;7.60;75.60
9544;DHT22;30418;51.45933468;7.33152330;2022-12-07T02:17:47;7.60;75.60
9544;DHT22;30418;51.45933468;7.33152330;2022-12-07T02:20:45;7.60;75.70
9544;DHT22;30418;51.45933468;7.33152330;2022-12-07T02:23:41;7.60;75.70
9544;DHT22;30418;51.45933468;7.33152330;2022-12-07T02:27:06;7.60;75.60
9544;DHT22;30418;51.45933468;7.33152330;2022-12-07T02:30:06;7.60;75.90
9544;DHT22;30418;51.45933468;7.33152330;2022-12-07T02:33:05;7.60;75.60
9544;DHT22;30418;51.45933468;7.33152330;2022-12-07T02:36:00;7.60;75.80
9544;DHT22;30418;51.45933468;7.33152330;2022-12-07T02:38:58;7.60;75.70
9544;DHT22;30418;51.45933468;7.33152330;2022-12-07T02:41:52;7.60;75.70
9544;DHT22;30418;51.45933468;7.33152330;2022-12-07T02:44:44;7.60;75.60
9544;DHT22;30418;51.45933468;7.33152330;2022-12-07T02:47:36;7.60;75.50
9544;DHT22;30418;51.45933468;7.33152330;2022-12-07T02:50:26;7.60;75.60
9544;DHT22;30418;51.45933468;7.33152330;2022-12-07T02:53:35;7.60;75.50
9544;DHT22;30418;51.45933468;7.33152330;2022-12-07T02:56:30;7.60;75.80
9544;DHT22;30418;51.45933468;7.33152330;2022-12-07T02:59:30;7.60;75.50
9544;DHT22;30418;51.45933468;7.33152330;2022-12-07T03:02:32;7.60;75.60
9544;DHT22;30418;51.45933468;7.33152330;2022-12-07T03:05:48;7.60;75.60
9544;DHT22;30418;51.45933468;7.33152330;2022-12-07T03:08:52;7.60;75.70
9544;DHT22;30418;51.45933468;7.33152330;2022-12-07T03:11:48;7.60;75.50
9544;DHT22;30418;51.45933468;7.33152330;2022-12-07T03:14:43;7.60;75.50
9544;DHT22;30418;51.45933468;7.33152330;2022-12-07T03:17:40;7.50;75.40
9544;DHT22;30418;51.45933468;7.33152330;2022-12-07T03:20:32;7.50;75.40
9544;DHT22;30418;51.45933468;7.33152330;2022-12-07T03:23:25;7.60;75.50
9544;DHT22;30418;51.45933468;7.33152330;2022-12-07T03:26:16;7.60;75.50
9544;DHT22;30418;51.45933468;7.33152330;2022-12-07T03:29:09;7.50;75.40
9544;DHT22;30418;51.45933468;7.33152330;2022-12-07T03:32:04;7.60;75.40
9544;DHT22;30418;51.45933468;7.33152330;2022-12-07T03:34:59;7.50;75.30
9544;DHT22;30418;51.45933468;7.33152330;2022-12-07T03:37:55;7.50;75.20
9544;DHT22;30418;51.45933468;7.33152330;2022-12-07T03:40:48;7.50;75.20
9544;DHT22;30418;51.45933468;7.33152330;2022-12-07T03:43:39;7.50;75.20
9544;DHT22;30418;51.45933468;7.33152330;2022-12-07T03:46:35;7.50;75.10
9544;DHT22;30418;51.45933468;7.33152330;2022-12-07T03:49:30;7.50;75.10
9544;DHT22;30418;51.45933468;7.33152330;2022-12-07T03:52:26;7.40;75.00
9544;DHT22;30418;51.45933468;7.33152330;2022-12-07T03:55:22;7.50;75.10
9544;DHT22;30418;51.45933468;7.33152330;2022-12-07T03:58:15;7.40;75.00
9544;DHT22;30418;51.45933468;7.33152330;2022-12-07T04:01:06;7.40;75.00
9544;DHT22;30418;51.45933468;7.33152330;2022-12-07T04:03:57;7.40;75.00
9544;DHT22;30418;51.45933468;7.33152330;2022-12-07T04:06:45;7.40;75.00
9544;DHT22;30418;51.45933468;7.33152330;2022-12-07T04:09:36;7.40;75.00
9544;DHT22;30418;51.45933468;7.33152330;2022-12-07T04:12:24;7.40;75.00
9544;DHT22;30418;51.45933468;7.33152330;2022-12-07T04:15:13;7.40;75.00
9544;DHT22;30418;51.45933468;7.33152330;2022-12-07T04:18:02;7.40;75.00
9544;DHT22;30418;51.45933468;7.33152330;2022-12-07T04:20:51;7.40;75.00
9544;DHT22;30418;51.45933468;7.33152330;2022-12-07T04:23:40;7.40;75.00
9544;DHT22;30418;51.45933468;7.33152330;2022-12-07T04:26:30;7.40;75.00
9544;DHT22;30418;51.45933468;7.33152330;2022-12-07T04:29:19;7.40;75.00
9544;DHT22;30418;51.45933468;7.33152330;2022-12-07T04:32:08;7.40;75.00
9544;DHT22;30418;51.45933468;7.33152330;2022-12-07T04:35:03;7.40;75.00
9544;DHT22;30418;51.45933468;7.33152330;2022-12-07T04:37:52;7.40;75.00
9544;DHT22;30418;51.45933468;7.33152330;2022-12-07T04:40:41;7.40;74.90
9544;DHT22;30418;51.45933468;7.33152330;2022-12-07T04:43:32;7.40;74.90
9544;DHT22;30418;51.45933468;7.33152330;2022-12-07T04:46:21;7.40;74.90
9544;DHT22;30418;51.45933468;7.33152330;2022-12-07T04:49:11;7.40;74.80
9544;DHT22;30418;51.45933468;7.33152330;2022-12-07T04:52:00;7.40;74.90
9544;DHT22;30418;51.45933468;7.33152330;2022-12-07T04:54:49;7.40;74.80
9544;DHT22;30418;51.45933468;7.33152330;2022-12-07T04:57:38;7.40;74.90
9544;DHT22;30418;51.45933468;7.33152330;2022-12-07T05:00:28;7.40;74.90
9544;DHT22;30418;51.45933468;7.33152330;2022-12-07T05:03:17;7.40;74.80
9544;DHT22;30418;51.45933468;7.33152330;2022-12-07T05:06:07;7.40;74.80
9544;DHT22;30418;51.45933468;7.33152330;2022-12-07T05:09:00;7.40;74.80
9544;DHT22;30418;51.45933468;7.33152330;2022-12-07T05:11:49;7.40;74.80
9544;DHT22;30418;51.45933468;7.33152330;2022-12-07T05:14:38;7.40;75.60
9544;DHT22;30418;51.45933468;7.33152330;2022-12-07T05:17:28;7.40;74.80
9544;DHT22;30418;51.45933468;7.33152330;2022-12-07T05:20:17;7.40;74.80
9544;DHT22;30418;51.45933468;7.33152330;2022-12-07T05:23:05;7.40;74.80
9544;DHT22;30418;51.45933468;7.33152330;2022-12-07T05:25:54;7.30;74.60
9544;DHT22;30418;51.45933468;7.33152330;2022-12-07T05:28:43;7.40;74.80
9544;DHT22;30418;51.45933468;7.33152330;2022-12-07T05:31:32;7.40;74.80
9544;DHT22;30418;51.45933468;7.33152330;2022-12-07T05:34:22;7.40;74.80
9544;DHT22;30418;51.45933468;7.33152330;2022-12-07T05:37:12;7.30;74.60
9544;DHT22;30418;51.45933468;7.33152330;2022-12-07T05:40:00;7.40;74.70
9544;DHT22;30418;51.45933468;7.33152330;2022-12-07T05:42:49;7.30;74.60
9544;DHT22;30418;51.45933468;7.33152330;2022-12-07T05:45:38;7.30;74.60
9544;DHT22;30418;51.45933468;7.33152330;2022-12-07T05:48:27;7.30;74.60
9544;DHT22;30418;51.45933468;7.33152330;2022-12-07T05:51:17;7.30;74.50
9544;DHT22;30418;51.45933468;7.33152330;2022-12-07T05:54:06;7.30;74.60
9544;DHT22;30418;51.45933468;7.33152330;2022-12-07T05:56:54;7.30;74.50
9544;DHT22;30418;51.45933468;7.33152330;2022-12-07T05:59:43;7.30;74.60
9544;DHT22;30418;51.45933468;7.33152330;2022-12-07T06:02:32;7.30;74.60
9544;DHT22;30418;51.45933468;7.33152330;2022-12-07T06:05:21;7.30;74.60
9544;DHT22;30418;51.45933468;7.33152330;2022-12-07T06:08:11;7.30;74.60
9544;DHT22;30418;51.45933468;7.33152330;2022-12-07T06:11:01;7.30;74.60
9544;DHT22;30418;51.45933468;7.33152330;2022-12-07T06:14:08;7.30;74.60
9544;DHT22;30418;51.45933468;7.33152330;2022-12-07T06:16:57;7.30;74.50
9544;DHT22;30418;51.45933468;7.33152330;2022-12-07T06:19:46;7.30;74.40
9544;DHT22;30418;51.45933468;7.33152330;2022-12-07T06:22:35;7.30;74.40
9544;DHT22;30418;51.45933468;7.33152330;2022-12-07T06:25:25;7.30;74.40
9544;DHT22;30418;51.45933468;7.33152330;2022-12-07T06:28:14;7.30;75.30
9544;DHT22;30418;51.45933468;7.33152330;2022-12-07T06:31:02;7.30;74.50
9544;DHT22;30418;51.45933468;7.33152330;2022-12-07T06:33:58;7.30;74.50
9544;DHT22;30418;51.45933468;7.33152330;2022-12-07T06:36:47;7.30;74.50
9544;DHT22;30418;51.45933468;7.33152330;2022-12-07T06:39:38;7.30;74.50
9544;DHT22;30418;51.45933468;7.33152330;2022-12-07T06:42:28;7.30;74.40
9544;DHT22;30418;51.45933468;7.33152330;2022-12-07T06:45:17;7.30;74.50
9544;DHT22;30418;51.45933468;7.33152330;2022-12-07T06:48:06;7.20;74.40
9544;DHT22;30418;51.45933468;7.33152330;2022-12-07T06:50:55;7.30;74.50
9544;DHT22;30418;51.45933468;7.33152330;2022-12-07T06:53:44;7.30;74.50
9544;DHT22;30418;51.45933468;7.33152330;2022-12-07T06:56:33;7.30;74.50
9544;DHT22;30418;51.45933468;7.33152330;2022-12-07T06:59:23;7.30;74.50
9544;DHT22;30418;51.45933468;7.33152330;2022-12-07T07:02:11;7.30;74.50
9544;DHT22;30418;51.45933468;7.33152330;2022-12-07T07:05:01;7.30;74.40
9544;DHT22;30418;51.45933468;7.33152330;2022-12-07T07:07:53;7.30;74.40
9544;DHT22;30418;51.45933468;7.33152330;2022-12-07T07:11:01;7.30;74.30
9544;DHT22;30418;51.45933468;7.33152330;2022-12-07T07:13:50;7.30;74.20
9544;DHT22;30418;51.45933468;7.33152330;2022-12-07T07:16:41;7.30;74.20
9544;DHT22;30418;51.45933468;7.33152330;2022-12-07T07:19:30;7.30;74.30
9544;DHT22;30418;51.45933468;7.33152330;2022-12-07T07:22:18;7.30;74.10
9544;DHT22;30418;51.45933468;7.33152330;2022-12-07T07:25:07;7.30;74.10
9544;DHT22;30418;51.45933468;7.33152330;2022-12-07T07:27:56;7.30;74.20
9544;DHT22;30418;51.45933468;7.33152330;2022-12-07T07:30:45;7.30;74.20
9544;DHT22;30418;51.45933468;7.33152330;2022-12-07T07:33:35;7.20;74.20
9544;DHT22;30418;51.45933468;7.33152330;2022-12-07T07:36:24;7.20;74.20
9544;DHT22;30418;51.45933468;7.33152330;2022-12-07T07:39:16;7.30;74.30
9544;DHT22;30418;51.45933468;7.33152330;2022-12-07T07:42:05;7.30;74.10
9544;DHT22;30418;51.45933468;7.33152330;2022-12-07T07:44:54;7.30;74.10
9544;DHT22;30418;51.45933468;7.33152330;2022-12-07T07:47:43;7.30;74.10
9544;DHT22;30418;51.45933468;7.33152330;2022-12-07T07:50:33;7.30;74.10
9544;DHT22;30418;51.45933468;7.33152330;2022-12-07T07:53:22;7.30;74.00
9544;DHT22;30418;51.45933468;7.33152330;2022-12-07T07:56:10;7.30;74.10
9544;DHT22;30418;51.45933468;7.33152330;2022-12-07T07:58:59;7.20;74.00
9544;DHT22;30418;51.45933468;7.33152330;2022-12-07T08:01:48;7.30;74.10
9544;DHT22;30418;51.45933468;7.33152330;2022-12-07T08:04:36;7.30;74.00
9544;DHT22;30418;51.45933468;7.33152330;2022-12-07T08:07:27;7.20;73.90
9544;DHT22;30418;51.45933468;7.33152330;2022-12-07T08:10:16;7.30;73.90
9544;DHT22;30418;51.45933468;7.33152330;2022-12-07T08:13:05;7.20;73.80
9544;DHT22;30418;51.45933468;7.33152330;2022-12-07T08:16:04;7.20;73.70
9544;DHT22;30418;51.45933468;7.33152330;2022-12-07T08:18:54;7.20;73.80
9544;DHT22;30418;51.45933468;7.33152330;2022-12-07T08:21:43;7.30;73.80
9544;DHT22;30418;51.45933468;7.33152330;2022-12-07T08:24:38;7.30;73.80
9544;DHT22;30418;51.45933468;7.33152330;2022-12-07T08:27:26;7.20;73.70
9544;DHT22;30418;51.45933468;7.33152330;2022-12-07T08:30:16;7.20;73.80
9544;DHT22;30418;51.45933468;7.33152330;2022-12-07T08:33:04;7.20;73.90
9544;DHT22;30418;51.45933468;7.33152330;2022-12-07T08:35:53;7.20;73.90
9544;DHT22;30418;51.45933468;7.33152330;2022-12-07T08:38:42;7.20;73.80
9544;DHT22;30418;51.45933468;7.33152330;2022-12-07T08:41:53;7.30;73.90
9544;DHT22;30418;51.45933468;7.33152330;2022-12-07T08:44:41;7.30;74.00
9544;DHT22;30418;51.45933468;7.33152330;2022-12-07T08:47:30;7.20;74.00
9544;DHT22;30418;51.45933468;7.33152330;2022-12-07T08:50:19;7.30;74.00
9544;DHT22;30418;51.45933468;7.33152330;2022-12-07T08:53:09;7.30;74.10
9544;DHT22;30418;51.45933468;7.33152330;2022-12-07T08:55:57;7.30;74.10
9544;DHT22;30418;51.45933468;7.33152330;2022-12-07T08:58:48;7.30;74.10
9544;DHT22;30418;51.45933468;7.33152330;2022-12-07T09:01:37;7.40;74.20
9544;DHT22;30418;51.45933468;7.33152330;2022-12-07T09:04:26;7.40;74.10
9544;DHT22;30418;51.45933468;7.33152330;2022-12-07T09:07:15;7.40;74.10
9544;DHT22;30418;51.45933468;7.33152330;2022-12-07T09:10:06;7.40;74.10
9544;DHT22;30418;51.45933468;7.33152330;2022-12-07T09:12:55;7.40;74.10
9544;DHT22;30418;51.45933468;7.33152330;2022-12-07T09:15:49;7.40;74.10
9544;DHT22;30418;51.45933468;7.33152330;2022-12-07T09:18:38;7.40;74.00
9544;DHT22;30418;51.45933468;7.33152330;2022-12-07T09:21:26;7.40;74.10
9544;DHT22;30418;51.45933468;7.33152330;2022-12-07T09:24:15;7.40;74.10
9544;DHT22;30418;51.45933468;7.33152330;2022-12-07T09:27:04;7.40;74.10
9544;DHT22;30418;51.45933468;7.33152330;2022-12-07T09:29:52;7.40;74.20
9544;DHT22;30418;51.45933468;7.33152330;2022-12-07T09:32:43;7.40;74.20
9544;DHT22;30418;51.45933468;7.33152330;2022-12-07T09:35:31;7.40;74.20
9544;DHT22;30418;51.45933468;7.33152330;2022-12-07T09:38:20;7.40;74.20
9544;DHT22;30418;51.45933468;7.33152330;2022-12-07T09:41:09;7.50;74.40
9544;DHT22;30418;51.45933468;7.33152330;2022-12-07T09:44:03;7.50;74.30
9544;DHT22;30418;51.45933468;7.33152330;2022-12-07T09:46:53;7.50;74.30
9544;DHT22;30418;51.45933468;7.33152330;2022-12-07T09:49:45;7.50;74.30
9544;DHT22;30418;51.45933468;7.33152330;2022-12-07T09:52:34;7.50;74.30
9544;DHT22;30418;51.45933468;7.33152330;2022-12-07T09:55:28;7.50;74.30
9544;DHT22;30418;51.45933468;7.33152330;2022-12-07T09:58:21;7.60;74.40
9544;DHT22;30418;51.45933468;7.33152330;2022-12-07T10:01:14;7.60;74.30
9544;DHT22;30418;51.45933468;7.33152330;2022-12-07T10:04:10;7.60;74.10
9544;DHT22;30418;51.45933468;7.33152330;2022-12-07T10:07:05;7.60;74.00
9544;DHT22;30418;51.45933468;7.33152330;2022-12-07T10:09:54;7.60;73.90
9544;DHT22;30418;51.45933468;7.33152330;2022-12-07T10:12:58;7.60;73.90
9544;DHT22;30418;51.45933468;7.33152330;2022-12-07T10:15:51;7.60;73.90
9544;DHT22;30418;51.45933468;7.33152330;2022-12-07T10:18:53;7.60;73.90
9544;DHT22;30418;51.45933468;7.33152330;2022-12-07T10:22:00;7.60;73.90
9544;DHT22;30418;51.45933468;7.33152330;2022-12-07T10:25:08;7.60;73.90
9544;DHT22;30418;51.45933468;7.33152330;2022-12-07T10:28:00;7.60;73.80
9544;DHT22;30418;51.45933468;7.33152330;2022-12-07T10:30:55;7.70;73.90
9544;DHT22;30418;51.45933468;7.33152330;2022-12-07T10:33:51;7.60;73.80
9544;DHT22;30418;51.45933468;7.33152330;2022-12-07T10:36:40;7.70;74.00
9544;DHT22;30418;51.45933468;7.33152330;2022-12-07T10:39:41;7.60;73.90
9544;DHT22;30418;51.45933468;7.33152330;2022-12-07T10:42:31;7.70;74.00
9544;DHT22;30418;51.45933468;7.33152330;2022-12-07T10:45:21;7.70;74.00
9544;DHT22;30418;51.45933468;7.33152330;2022-12-07T10:48:13;7.70;74.00
9544;DHT22;30418;51.45933468;7.33152330;2022-12-07T10:51:10;7.70;74.00
9544;DHT22;30418;51.45933468;7.33152330;2022-12-07T10:54:09;7.70;74.10
9544;DHT22;30418;51.45933468;7.33152330;2022-12-07T10:57:21;7.70;74.10
9544;DHT22;30418;51.45933468;7.33152330;2022-12-07T11:00:18;7.70;74.00
9544;DHT22;30418;51.45933468;7.33152330;2022-12-07T11:03:29;7.80;73.90
9544;DHT22;30418;51.45933468;7.33152330;2022-12-07T11:06:29;7.80;73.80
9544;DHT22;30418;51.45933468;7.33152330;2022-12-07T11:13:18;7.80;73.80
9544;DHT22;30418;51.45933468;7.33152330;2022-12-07T11:16:20;7.80;73.80
9544;DHT22;30418;51.45933468;7.33152330;2022-12-07T11:19:23;7.80;73.80
9544;DHT22;30418;51.45933468;7.33152330;2022-12-07T11:22:34;7.80;73.70
9544;DHT22;30418;51.45933468;7.33152330;2022-12-07T11:25:32;7.80;73.70
9544;DHT22;30418;51.45933468;7.33152330;2022-12-07T11:28:38;7.90;73.90
9544;DHT22;30418;51.45933468;7.33152330;2022-12-07T11:31:38;7.90;73.80
9544;DHT22;30418;51.45933468;7.33152330;2022-12-07T11:34:39;7.90;73.70
9544;DHT22;30418;51.45933468;7.33152330;2022-12-07T11:37:34;7.90;73.80
9544;DHT22;30418;51.45933468;7.33152330;2022-12-07T11:40:28;7.90;73.70
9544;DHT22;30418;51.45933468;7.33152330;2022-12-07T11:43:26;7.90;73.60
9544;DHT22;30418;51.45933468;7.33152330;2022-12-07T11:46:16;8.00;73.80
9544;DHT22;30418;51.45933468;7.33152330;2022-12-07T11:49:12;8.00;73.60
9544;DHT22;30418;51.45933468;7.33152330;2022-12-07T11:52:04;8.00;73.60
9544;DHT22;30418;51.45933468;7.33152330;2022-12-07T11:54:55;8.00;73.70
9544;DHT22;30418;51.45933468;7.33152330;2022-12-07T11:57:50;8.00;73.70
9544;DHT22;30418;51.45933468;7.33152330;2022-12-07T12:00:42;8.00;73.70
9544;DHT22;30418;51.45933468;7.33152330;2022-12-07T12:03:35;8.10;73.70
9544;DHT22;30418;51.45933468;7.33152330;2022-12-07T12:06:26;8.10;74.40
9544;DHT22;30418;51.45933468;7.33152330;2022-12-07T12:09:17;8.10;73.50
9544;DHT22;30418;51.45933468;7.33152330;2022-12-07T12:12:55;8.10;73.40
9544;DHT22;30418;51.45933468;7.33152330;2022-12-07T12:16:35;8.10;73.30
9544;DHT22;30418;51.45933468;7.33152330;2022-12-07T12:22:51;8.10;73.20
9544;DHT22;30418;51.45933468;7.33152330;2022-12-07T12:25:43;8.10;73.10
9544;DHT22;30418;51.45933468;7.33152330;2022-12-07T12:28:38;8.10;72.90
9544;DHT22;30418;51.45933468;7.33152330;2022-12-07T12:31:39;8.10;72.50
9544;DHT22;30418;51.45933468;7.33152330;2022-12-07T12:34:33;8.10;72.50
9544;DHT22;30418;51.45933468;7.33152330;2022-12-07T12:37:41;8.10;72.60
9544;DHT22;30418;51.45933468;7.33152330;2022-12-07T12:40:41;8.10;72.50
9544;DHT22;30418;51.45933468;7.33152330;2022-12-07T12:43:48;8.10;72.60
9544;DHT22;30418;51.45933468;7.33152330;2022-12-07T12:46:50;8.10;72.70
9544;DHT22;30418;51.45933468;7.33152330;2022-12-07T12:49:41;8.10;72.60
9544;DHT22;30418;51.45933468;7.33152330;2022-12-07T12:52:50;8.10;72.70
9544;DHT22;30418;51.45933468;7.33152330;2022-12-07T12:56:20;8.10;72.60
9544;DHT22;30418;51.45933468;7.33152330;2022-12-07T12:59:23;8.10;72.70
9544;DHT22;30418;51.45933468;7.33152330;2022-12-07T13:02:20;8.20;72.70
9544;DHT22;30418;51.45933468;7.33152330;2022-12-07T13:05:18;8.20;72.70
9544;DHT22;30418;51.45933468;7.33152330;2022-12-07T13:08:15;8.20;72.50
9544;DHT22;30418;51.45933468;7.33152330;2022-12-07T13:11:18;8.20;72.50
9544;DHT22;30418;51.45933468;7.33152330;2022-12-07T13:17:58;8.20;72.50
9544;DHT22;30418;51.45933468;7.33152330;2022-12-07T13:20:56;8.20;72.50
9544;DHT22;30418;51.45933468;7.33152330;2022-12-07T13:23:55;8.20;72.40
9544;DHT22;30418;51.45933468;7.33152330;2022-12-07T13:26:44;8.20;72.20
9544;DHT22;30418;51.45933468;7.33152330;2022-12-07T13:29:36;8.30;72.40
9544;DHT22;30418;51.45933468;7.33152330;2022-12-07T13:32:28;8.20;72.20
9544;DHT22;30418;51.45933468;7.33152330;2022-12-07T13:35:34;8.20;72.20
9544;DHT22;30418;51.45933468;7.33152330;2022-12-07T13:38:27;8.20;72.10
9544;DHT22;30418;51.45933468;7.33152330;2022-12-07T13:41:20;8.30;72.40
9544;DHT22;30418;51.45933468;7.33152330;2022-12-07T13:44:11;8.30;72.40
9544;DHT22;30418;51.45933468;7.33152330;2022-12-07T13:47:06;8.30;72.30
9544;DHT22;30418;51.45933468;7.33152330;2022-12-07T13:50:00;8.20;72.30
9544;DHT22;30418;51.45933468;7.33152330;2022-12-07T13:52:50;8.30;72.40
9544;DHT22;30418;51.45933468;7.33152330;2022-12-07T13:55:47;8.30;72.40
9544;DHT22;30418;51.45933468;7.33152330;2022-12-07T13:58:41;8.30;72.50
9544;DHT22;30418;51.45933468;7.33152330;2022-12-07T14:01:31;8.30;72.30
9544;DHT22;30418;51.45933468;7.33152330;2022-12-07T14:04:31;8.30;72.30
9544;DHT22;30418;51.45933468;7.33152330;2022-12-07T14:07:24;8.30;72.30
9544;DHT22;30418;51.45933468;7.33152330;2022-12-07T14:10:24;8.30;72.30
9544;DHT22;30418;51.45933468;7.33152330;2022-12-07T14:13:29;8.30;72.20
9544;DHT22;30418;51.45933468;7.33152330;2022-12-07T14:16:24;8.30;72.20
9544;DHT22;30418;51.45933468;7.33152330;2022-12-07T14:19:44;8.20;72.00
9544;DHT22;30418;51.45933468;7.33152330;2022-12-07T14:22:37;8.20;71.90
9544;DHT22;30418;51.45933468;7.33152330;2022-12-07T14:25:28;8.20;71.90
9544;DHT22;30418;51.45933468;7.33152330;2022-12-07T14:28:26;8.20;71.60
9544;DHT22;30418;51.45933468;7.33152330;2022-12-07T14:31:18;8.10;71.60
9544;DHT22;30418;51.45933468;7.33152330;2022-12-07T14:34:16;8.00;71.60
9544;DHT22;30418;51.45933468;7.33152330;2022-12-07T14:37:08;8.00;71.60
9544;DHT22;30418;51.45933468;7.33152330;2022-12-07T14:39:57;8.00;71.80
9544;DHT22;30418;51.45933468;7.33152330;2022-12-07T14:42:51;7.90;71.80
9544;DHT22;30418;51.45933468;7.33152330;2022-12-07T14:45:41;7.90;71.90
9544;DHT22;30418;51.45933468;7.33152330;2022-12-07T14:48:30;7.90;71.90
9544;DHT22;30418;51.45933468;7.33152330;2022-12-07T14:51:41;7.90;71.90
9544;DHT22;30418;51.45933468;7.33152330;2022-12-07T14:54:51;7.90;71.90
9544;DHT22;30418;51.45933468;7.33152330;2022-12-07T14:57:40;7.80;71.90
9544;DHT22;30418;51.45933468;7.33152330;2022-12-07T15:00:30;7.80;71.90
9544;DHT22;30418;51.45933468;7.33152330;2022-12-07T15:03:20;7.80;71.90
9544;DHT22;30418;51.45933468;7.33152330;2022-12-07T15:06:13;7.80;71.90
9544;DHT22;30418;51.45933468;7.33152330;2022-12-07T15:09:04;7.80;72.00
9544;DHT22;30418;51.45933468;7.33152330;2022-12-07T15:11:53;7.70;71.80
9544;DHT22;30418;51.45933468;7.33152330;2022-12-07T15:14:41;7.80;71.90
9544;DHT22;30418;51.45933468;7.33152330;2022-12-07T15:17:32;7.80;72.00
9544;DHT22;30418;51.45933468;7.33152330;2022-12-07T15:20:20;7.70;72.00
9544;DHT22;30418;51.45933468;7.33152330;2022-12-07T15:23:10;7.70;72.00
9544;DHT22;30418;51.45933468;7.33152330;2022-12-07T15:25:58;7.70;72.10
9544;DHT22;30418;51.45933468;7.33152330;2022-12-07T15:28:47;7.70;72.10
9544;DHT22;30418;51.45933468;7.33152330;2022-12-07T15:31:36;7.70;72.10
9544;DHT22;30418;51.45933468;7.33152330;2022-12-07T15:34:44;7.70;72.10
9544;DHT22;30418;51.45933468;7.33152330;2022-12-07T15:37:32;7.70;72.10
9544;DHT22;30418;51.45933468;7.33152330;2022-12-07T15:40:21;7.70;72.10
9544;DHT22;30418;51.45933468;7.33152330;2022-12-07T15:43:10;7.70;72.10
9544;DHT22;30418;51.45933468;7.33152330;2022-12-07T15:46:13;7.70;72.10
9544;DHT22;30418;51.45933468;7.33152330;2022-12-07T15:49:02;7.70;72.10
9544;DHT22;30418;51.45933468;7.33152330;2022-12-07T15:51:52;7.70;72.10
9544;DHT22;30418;51.45933468;7.33152330;2022-12-07T15:54:41;7.70;72.10
9544;DHT22;30418;51.45933468;7.33152330;2022-12-07T15:57:30;7.70;72.20
9544;DHT22;30418;51.45933468;7.33152330;2022-12-07T16:00:19;7.70;72.20
9544;DHT22;30418;51.45933468;7.33152330;2022-12-07T16:03:08;7.70;72.30
9544;DHT22;30418;51.45933468;7.33152330;2022-12-07T16:05:57;7.70;72.30
9544;DHT22;30418;51.45933468;7.33152330;2022-12-07T16:08:47;7.70;72.40
9544;DHT22;30418;51.45933468;7.33152330;2022-12-07T16:11:36;7.60;72.30
9544;DHT22;30418;51.45933468;7.33152330;2022-12-07T16:14:25;7.60;72.30
9544;DHT22;30418;51.45933468;7.33152330;2022-12-07T16:17:14;7.60;72.30
9544;DHT22;30418;51.45933468;7.33152330;2022-12-07T16:20:04;7.70;72.40
9544;DHT22;30418;51.45933468;7.33152330;2022-12-07T16:22:55;7.70;72.50